Portada
METAR-TAF:

METAR-TAF

Aeroports :

Claremore, Oklahoma, Estats Units d'Amèrica

latitud: 36-17-40N, longitud: 095-28-47W, altitud: 221 m

Observació

L'informe es va fer fa 15 minuts, a les 14:35 UTC
Vent 14 kt del Sud amb ràfegues de 20 kt
Temperatura -2°C
Humitat 63%
Pressió 1024 hPa
Visibilitat: 16.1 km
Cel clar

METAR: KGCM 131435Z AUTO 18014G20KT 10SM CLR M02/M08 A3023 RMK AO2

Hora: 08:50 (14:50 UTC)


TAF: manca

Observacions i pronòstics meteorològics de més de 4000 aeroports (METAR i TAF).

Les estacions disponibles són els punts grocs i vermells al mapa.

Posi el ratolí al punt desitjat per veure el nom de l'estació.

Feu clic per veure les observacions i els pronòstics meteorològics.

Per canviar el mapa: feu clic els botons verds amb una creu de color negre per apropar; al botó verd amb un guió per allunyar la imatge; o en les fletxes verdes per a mapes adjacents.


METAR-TAF: